sensor_id;sensor_type;location;lat;lon;timestamp;P1;durP1;ratioP1;P2;durP2;ratioP2
21507;SDS011;10915;54.352;9.074;2022-12-16T00:00:33;96.00;;;34.13;;
21507;SDS011;10915;54.352;9.074;2022-12-16T00:02:59;115.90;;;64.43;;
21507;SDS011;10915;54.352;9.074;2022-12-16T00:05:25;114.33;;;63.97;;
21507;SDS011;10915;54.352;9.074;2022-12-16T00:07:53;126.67;;;42.20;;
21507;SDS011;10915;54.352;9.074;2022-12-16T00:10:19;149.67;;;74.33;;
21507;SDS011;10915;54.352;9.074;2022-12-16T00:12:46;140.23;;;73.07;;
21507;SDS011;10915;54.352;9.074;2022-12-16T00:15:12;146.87;;;76.47;;
21507;SDS011;10915;54.352;9.074;2022-12-16T00:17:38;153.33;;;78.33;;
21507;SDS011;10915;54.352;9.074;2022-12-16T00:20:04;150.57;;;76.07;;
21507;SDS011;10915;54.352;9.074;2022-12-16T00:22:30;156.80;;;78.70;;
21507;SDS011;10915;54.352;9.074;2022-12-16T00:24:56;147.87;;;76.67;;
21507;SDS011;10915;54.352;9.074;2022-12-16T00:27:22;158.90;;;78.97;;
21507;SDS011;10915;54.352;9.074;2022-12-16T00:29:47;169.07;;;80.90;;
21507;SDS011;10915;54.352;9.074;2022-12-16T00:32:13;182.30;;;85.00;;
21507;SDS011;10915;54.352;9.074;2022-12-16T00:34:39;156.00;;;78.47;;
21507;SDS011;10915;54.352;9.074;2022-12-16T00:37:05;169.97;;;81.07;;
21507;SDS011;10915;54.352;9.074;2022-12-16T00:39:31;123.43;;;66.40;;
21507;SDS011;10915;54.352;9.074;2022-12-16T00:41:57;119.17;;;62.10;;
21507;SDS011;10915;54.352;9.074;2022-12-16T00:44:23;101.87;;;55.27;;
21507;SDS011;10915;54.352;9.074;2022-12-16T00:46:48;102.93;;;52.93;;
21507;SDS011;10915;54.352;9.074;2022-12-16T00:49:14;70.43;;;41.27;;
21507;SDS011;10915;54.352;9.074;2022-12-16T00:51:40;61.50;;;37.40;;
21507;SDS011;10915;54.352;9.074;2022-12-16T00:54:05;60.17;;;35.17;;
21507;SDS011;10915;54.352;9.074;2022-12-16T00:56:31;54.43;;;32.33;;
21507;SDS011;10915;54.352;9.074;2022-12-16T00:58:57;54.00;;;31.67;;
21507;SDS011;10915;54.352;9.074;2022-12-16T01:01:22;46.17;;;29.23;;
21507;SDS011;10915;54.352;9.074;2022-12-16T01:03:48;52.33;;;30.20;;
21507;SDS011;10915;54.352;9.074;2022-12-16T01:06:14;50.90;;;31.03;;
21507;SDS011;10915;54.352;9.074;2022-12-16T01:08:42;50.00;;;29.47;;
21507;SDS011;10915;54.352;9.074;2022-12-16T01:11:12;49.47;;;29.23;;
21507;SDS011;10915;54.352;9.074;2022-12-16T01:13:40;51.33;;;30.17;;
21507;SDS011;10915;54.352;9.074;2022-12-16T01:16:06;51.80;;;31.10;;
21507;SDS011;10915;54.352;9.074;2022-12-16T01:18:31;45.77;;;30.87;;
21507;SDS011;10915;54.352;9.074;2022-12-16T01:21:01;43.27;;;28.57;;
21507;SDS011;10915;54.352;9.074;2022-12-16T01:23:28;45.90;;;29.27;;
21507;SDS011;10915;54.352;9.074;2022-12-16T01:25:54;45.30;;;29.17;;
21507;SDS011;10915;54.352;9.074;2022-12-16T01:28:24;44.93;;;30.53;;
21507;SDS011;10915;54.352;9.074;2022-12-16T01:30:57;51.67;;;31.97;;
21507;SDS011;10915;54.352;9.074;2022-12-16T01:33:26;50.77;;;31.13;;
21507;SDS011;10915;54.352;9.074;2022-12-16T01:36:03;47.73;;;31.53;;
21507;SDS011;10915;54.352;9.074;2022-12-16T01:38:30;57.10;;;32.83;;
21507;SDS011;10915;54.352;9.074;2022-12-16T01:40:57;52.57;;;31.63;;
21507;SDS011;10915;54.352;9.074;2022-12-16T01:43:27;50.17;;;31.20;;
21507;SDS011;10915;54.352;9.074;2022-12-16T01:45:56;45.03;;;30.03;;
21507;SDS011;10915;54.352;9.074;2022-12-16T01:51:33;39.10;;;26.23;;
21507;SDS011;10915;54.352;9.074;2022-12-16T01:54:06;43.93;;;29.07;;
21507;SDS011;10915;54.352;9.074;2022-12-16T01:56:42;41.17;;;27.50;;
21507;SDS011;10915;54.352;9.074;2022-12-16T01:59:13;39.63;;;27.60;;
21507;SDS011;10915;54.352;9.074;2022-12-16T02:01:40;40.93;;;27.73;;
21507;SDS011;10915;54.352;9.074;2022-12-16T02:04:06;43.73;;;28.03;;
21507;SDS011;10915;54.352;9.074;2022-12-16T02:06:32;41.03;;;27.20;;
21507;SDS011;10915;54.352;9.074;2022-12-16T02:08:58;41.00;;;26.73;;
21507;SDS011;10915;54.352;9.074;2022-12-16T02:22:59;45.27;;;28.87;;
21507;SDS011;10915;54.352;9.074;2022-12-16T02:37:04;53.80;;;33.53;;
21507;SDS011;10915;54.352;9.074;2022-12-16T02:39:36;56.27;;;33.33;;
21507;SDS011;10915;54.352;9.074;2022-12-16T02:47:32;59.00;;;34.40;;
21507;SDS011;10915;54.352;9.074;2022-12-16T02:49:58;59.80;;;36.40;;
21507;SDS011;10915;54.352;9.074;2022-12-16T02:52:25;70.73;;;37.83;;
21507;SDS011;10915;54.352;9.074;2022-12-16T02:54:54;62.87;;;37.73;;
21507;SDS011;10915;54.352;9.074;2022-12-16T02:57:46;66.37;;;38.77;;
21507;SDS011;10915;54.352;9.074;2022-12-16T03:00:20;61.07;;;36.40;;
21507;SDS011;10915;54.352;9.074;2022-12-16T03:07:55;60.73;;;35.17;;
21507;SDS011;10915;54.352;9.074;2022-12-16T03:10:27;59.03;;;35.87;;
21507;SDS011;10915;54.352;9.074;2022-12-16T03:12:57;48.20;;;31.67;;
21507;SDS011;10915;54.352;9.074;2022-12-16T03:15:25;39.60;;;26.83;;
21507;SDS011;10915;54.352;9.074;2022-12-16T03:17:56;37.37;;;26.40;;
21507;SDS011;10915;54.352;9.074;2022-12-16T03:22:48;34.23;;;24.07;;
21507;SDS011;10915;54.352;9.074;2022-12-16T03:25:16;33.10;;;23.27;;
21507;SDS011;10915;54.352;9.074;2022-12-16T03:28:04;34.47;;;23.63;;
21507;SDS011;10915;54.352;9.074;2022-12-16T03:30:53;35.67;;;23.27;;
21507;SDS011;10915;54.352;9.074;2022-12-16T03:33:44;37.23;;;16.87;;
21507;SDS011;10915;54.352;9.074;2022-12-16T03:36:20;31.60;;;14.07;;
21507;SDS011;10915;54.352;9.074;2022-12-16T03:38:48;32.17;;;22.57;;
21507;SDS011;10915;54.352;9.074;2022-12-16T03:41:15;31.17;;;22.97;;
21507;SDS011;10915;54.352;9.074;2022-12-16T03:43:44;31.80;;;23.40;;
21507;SDS011;10915;54.352;9.074;2022-12-16T03:46:12;31.10;;;22.80;;
21507;SDS011;10915;54.352;9.074;2022-12-16T03:48:47;31.10;;;22.57;;
21507;SDS011;10915;54.352;9.074;2022-12-16T03:51:14;30.33;;;21.63;;
21507;SDS011;10915;54.352;9.074;2022-12-16T03:53:40;25.43;;;19.47;;
21507;SDS011;10915;54.352;9.074;2022-12-16T03:56:06;27.57;;;20.50;;
21507;SDS011;10915;54.352;9.074;2022-12-16T03:58:32;27.90;;;20.30;;
21507;SDS011;10915;54.352;9.074;2022-12-16T04:00:59;26.03;;;19.27;;
21507;SDS011;10915;54.352;9.074;2022-12-16T04:03:25;24.00;;;18.37;;
21507;SDS011;10915;54.352;9.074;2022-12-16T04:05:51;25.93;;;18.93;;
21507;SDS011;10915;54.352;9.074;2022-12-16T04:08:17;22.57;;;18.13;;
21507;SDS011;10915;54.352;9.074;2022-12-16T04:10:43;26.07;;;17.73;;
21507;SDS011;10915;54.352;9.074;2022-12-16T04:13:27;23.80;;;18.03;;
21507;SDS011;10915;54.352;9.074;2022-12-16T04:16:15;22.40;;;17.47;;
21507;SDS011;10915;54.352;9.074;2022-12-16T04:19:00;21.37;;;16.30;;
21507;SDS011;10915;54.352;9.074;2022-12-16T04:21:45;20.27;;;16.53;;
21507;SDS011;10915;54.352;9.074;2022-12-16T04:24:30;21.40;;;16.60;;
21507;SDS011;10915;54.352;9.074;2022-12-16T04:26:56;18.30;;;15.10;;
21507;SDS011;10915;54.352;9.074;2022-12-16T04:29:41;19.00;;;15.47;;
21507;SDS011;10915;54.352;9.074;2022-12-16T04:32:27;20.93;;;15.63;;
21507;SDS011;10915;54.352;9.074;2022-12-16T04:35:13;20.10;;;15.60;;
21507;SDS011;10915;54.352;9.074;2022-12-16T04:37:58;23.13;;;15.90;;
21507;SDS011;10915;54.352;9.074;2022-12-16T04:40:42;20.00;;;15.77;;
21507;SDS011;10915;54.352;9.074;2022-12-16T04:43:26;23.27;;;11.53;;
21507;SDS011;10915;54.352;9.074;2022-12-16T04:46:10;20.07;;;10.60;;
21507;SDS011;10915;54.352;9.074;2022-12-16T04:48:54;21.80;;;15.90;;
21507;SDS011;10915;54.352;9.074;2022-12-16T04:51:38;21.47;;;16.47;;
21507;SDS011;10915;54.352;9.074;2022-12-16T04:54:22;22.50;;;15.07;;
21507;SDS011;10915;54.352;9.074;2022-12-16T04:57:06;20.83;;;15.60;;
21507;SDS011;10915;54.352;9.074;2022-12-16T04:59:51;23.60;;;11.93;;
21507;SDS011;10915;54.352;9.074;2022-12-16T05:02:35;19.93;;;9.57;;
21507;SDS011;10915;54.352;9.074;2022-12-16T05:05:19;18.33;;;8.83;;
21507;SDS011;10915;54.352;9.074;2022-12-16T05:08:03;20.03;;;14.60;;
21507;SDS011;10915;54.352;9.074;2022-12-16T05:10:47;20.57;;;14.93;;
21507;SDS011;10915;54.352;9.074;2022-12-16T05:13:31;17.43;;;9.50;;
21507;SDS011;10915;54.352;9.074;2022-12-16T05:16:15;19.17;;;8.43;;
21507;SDS011;10915;54.352;9.074;2022-12-16T05:19:00;18.63;;;8.90;;
21507;SDS011;10915;54.352;9.074;2022-12-16T05:21:44;18.57;;;8.90;;
21507;SDS011;10915;54.352;9.074;2022-12-16T05:24:28;19.57;;;15.13;;
21507;SDS011;10915;54.352;9.074;2022-12-16T05:27:12;20.27;;;9.97;;
21507;SDS011;10915;54.352;9.074;2022-12-16T05:29:57;19.40;;;14.13;;
21507;SDS011;10915;54.352;9.074;2022-12-16T05:32:41;18.97;;;14.07;;
21507;SDS011;10915;54.352;9.074;2022-12-16T05:35:25;19.10;;;13.83;;
21507;SDS011;10915;54.352;9.074;2022-12-16T05:38:09;18.03;;;14.10;;
21507;SDS011;10915;54.352;9.074;2022-12-16T05:40:53;20.10;;;15.00;;
21507;SDS011;10915;54.352;9.074;2022-12-16T05:43:37;20.60;;;14.30;;
21507;SDS011;10915;54.352;9.074;2022-12-16T05:46:21;21.27;;;10.57;;
21507;SDS011;10915;54.352;9.074;2022-12-16T05:49:05;22.10;;;10.77;;
21507;SDS011;10915;54.352;9.074;2022-12-16T05:51:49;22.60;;;16.50;;
21507;SDS011;10915;54.352;9.074;2022-12-16T05:54:33;18.63;;;10.07;;
21507;SDS011;10915;54.352;9.074;2022-12-16T05:57:17;19.87;;;10.60;;
21507;SDS011;10915;54.352;9.074;2022-12-16T06:00:01;22.77;;;16.20;;
21507;SDS011;10915;54.352;9.074;2022-12-16T06:02:45;23.23;;;11.63;;
21507;SDS011;10915;54.352;9.074;2022-12-16T06:05:33;23.90;;;10.17;;
21507;SDS011;10915;54.352;9.074;2022-12-16T06:08:17;21.97;;;15.87;;
21507;SDS011;10915;54.352;9.074;2022-12-16T06:11:01;19.30;;;15.47;;
21507;SDS011;10915;54.352;9.074;2022-12-16T06:13:45;20.77;;;16.37;;
21507;SDS011;10915;54.352;9.074;2022-12-16T06:16:29;21.40;;;16.43;;
21507;SDS011;10915;54.352;9.074;2022-12-16T06:19:14;23.80;;;16.70;;
21507;SDS011;10915;54.352;9.074;2022-12-16T06:21:58;24.07;;;17.43;;
21507;SDS011;10915;54.352;9.074;2022-12-16T06:24:42;22.90;;;17.43;;
21507;SDS011;10915;54.352;9.074;2022-12-16T06:27:26;22.70;;;17.00;;
21507;SDS011;10915;54.352;9.074;2022-12-16T06:30:10;21.27;;;16.93;;
21507;SDS011;10915;54.352;9.074;2022-12-16T06:32:54;26.70;;;18.30;;
21507;SDS011;10915;54.352;9.074;2022-12-16T06:35:41;23.50;;;17.40;;
21507;SDS011;10915;54.352;9.074;2022-12-16T06:38:25;22.07;;;17.07;;
21507;SDS011;10915;54.352;9.074;2022-12-16T06:41:09;22.57;;;17.40;;
21507;SDS011;10915;54.352;9.074;2022-12-16T06:43:53;22.83;;;18.17;;
21507;SDS011;10915;54.352;9.074;2022-12-16T06:46:37;26.33;;;18.63;;
21507;SDS011;10915;54.352;9.074;2022-12-16T06:49:21;23.70;;;13.03;;
21507;SDS011;10915;54.352;9.074;2022-12-16T06:52:06;23.73;;;11.57;;
21507;SDS011;10915;54.352;9.074;2022-12-16T06:54:50;22.97;;;10.40;;
21507;SDS011;10915;54.352;9.074;2022-12-16T06:57:34;18.10;;;14.30;;
21507;SDS011;10915;54.352;9.074;2022-12-16T07:00:18;16.90;;;14.37;;
21507;SDS011;10915;54.352;9.074;2022-12-16T07:03:02;17.00;;;13.77;;
21507;SDS011;10915;54.352;9.074;2022-12-16T07:05:47;15.57;;;12.43;;
21507;SDS011;10915;54.352;9.074;2022-12-16T07:08:36;17.50;;;13.17;;
21507;SDS011;10915;54.352;9.074;2022-12-16T07:11:20;14.47;;;11.90;;
21507;SDS011;10915;54.352;9.074;2022-12-16T07:14:04;15.47;;;12.70;;
21507;SDS011;10915;54.352;9.074;2022-12-16T07:16:48;13.43;;;11.27;;
21507;SDS011;10915;54.352;9.074;2022-12-16T07:19:32;17.60;;;11.87;;
21507;SDS011;10915;54.352;9.074;2022-12-16T07:22:17;17.77;;;13.27;;
21507;SDS011;10915;54.352;9.074;2022-12-16T07:25:01;15.03;;;11.83;;
21507;SDS011;10915;54.352;9.074;2022-12-16T07:27:45;15.20;;;11.37;;
21507;SDS011;10915;54.352;9.074;2022-12-16T07:30:30;18.40;;;9.03;;
21507;SDS011;10915;54.352;9.074;2022-12-16T07:33:14;13.57;;;11.33;;
21507;SDS011;10915;54.352;9.074;2022-12-16T07:35:58;15.47;;;11.73;;
21507;SDS011;10915;54.352;9.074;2022-12-16T07:38:43;14.17;;;11.83;;
21507;SDS011;10915;54.352;9.074;2022-12-16T07:41:27;15.73;;;12.40;;
21507;SDS011;10915;54.352;9.074;2022-12-16T07:44:11;17.07;;;11.13;;
21507;SDS011;10915;54.352;9.074;2022-12-16T07:46:55;15.20;;;12.40;;
21507;SDS011;10915;54.352;9.074;2022-12-16T07:49:39;15.00;;;12.07;;
21507;SDS011;10915;54.352;9.074;2022-12-16T07:52:23;18.77;;;13.73;;
21507;SDS011;10915;54.352;9.074;2022-12-16T07:55:07;15.90;;;12.33;;
21507;SDS011;10915;54.352;9.074;2022-12-16T07:57:52;14.63;;;11.60;;
21507;SDS011;10915;54.352;9.074;2022-12-16T08:00:36;17.27;;;12.57;;
21507;SDS011;10915;54.352;9.074;2022-12-16T08:03:20;18.30;;;13.60;;
21507;SDS011;10915;54.352;9.074;2022-12-16T08:06:04;16.50;;;13.00;;
21507;SDS011;10915;54.352;9.074;2022-12-16T08:08:48;18.00;;;14.03;;
21507;SDS011;10915;54.352;9.074;2022-12-16T08:11:32;21.27;;;14.87;;
21507;SDS011;10915;54.352;9.074;2022-12-16T08:14:16;16.97;;;14.13;;
21507;SDS011;10915;54.352;9.074;2022-12-16T08:17:01;23.73;;;14.53;;
21507;SDS011;10915;54.352;9.074;2022-12-16T08:19:45;19.83;;;14.37;;
21507;SDS011;10915;54.352;9.074;2022-12-16T08:22:29;19.53;;;13.77;;
21507;SDS011;10915;54.352;9.074;2022-12-16T08:25:13;22.83;;;15.43;;
21507;SDS011;10915;54.352;9.074;2022-12-16T08:27:57;19.27;;;15.80;;
21507;SDS011;10915;54.352;9.074;2022-12-16T08:30:41;20.13;;;16.30;;
21507;SDS011;10915;54.352;9.074;2022-12-16T08:33:25;24.60;;;15.50;;
21507;SDS011;10915;54.352;9.074;2022-12-16T08:36:09;20.30;;;15.50;;
21507;SDS011;10915;54.352;9.074;2022-12-16T08:38:53;20.67;;;15.60;;
21507;SDS011;10915;54.352;9.074;2022-12-16T08:41:37;17.60;;;14.33;;
21507;SDS011;10915;54.352;9.074;2022-12-16T08:44:21;22.60;;;15.83;;
21507;SDS011;10915;54.352;9.074;2022-12-16T08:47:06;18.57;;;15.10;;
21507;SDS011;10915;54.352;9.074;2022-12-16T08:49:50;20.70;;;15.77;;
21507;SDS011;10915;54.352;9.074;2022-12-16T08:52:34;23.23;;;16.20;;
21507;SDS011;10915;54.352;9.074;2022-12-16T08:55:18;22.60;;;16.20;;
21507;SDS011;10915;54.352;9.074;2022-12-16T08:58:02;19.40;;;14.50;;
21507;SDS011;10915;54.352;9.074;2022-12-16T09:00:46;19.33;;;15.90;;
21507;SDS011;10915;54.352;9.074;2022-12-16T09:03:30;20.60;;;15.80;;
21507;SDS011;10915;54.352;9.074;2022-12-16T09:06:14;23.60;;;17.17;;
21507;SDS011;10915;54.352;9.074;2022-12-16T09:08:58;22.60;;;11.63;;
21507;SDS011;10915;54.352;9.074;2022-12-16T09:11:42;20.93;;;10.17;;
21507;SDS011;10915;54.352;9.074;2022-12-16T09:14:27;21.63;;;10.10;;
21507;SDS011;10915;54.352;9.074;2022-12-16T09:17:11;22.23;;;17.63;;
21507;SDS011;10915;54.352;9.074;2022-12-16T09:19:55;22.40;;;17.23;;
21507;SDS011;10915;54.352;9.074;2022-12-16T09:22:39;26.80;;;13.57;;
21507;SDS011;10915;54.352;9.074;2022-12-16T09:25:23;18.73;;;10.70;;
21507;SDS011;10915;54.352;9.074;2022-12-16T09:28:07;21.87;;;11.80;;
21507;SDS011;10915;54.352;9.074;2022-12-16T09:30:51;25.03;;;18.47;;
21507;SDS011;10915;54.352;9.074;2022-12-16T09:33:35;25.20;;;12.27;;
21507;SDS011;10915;54.352;9.074;2022-12-16T09:36:20;22.73;;;18.23;;
21507;SDS011;10915;54.352;9.074;2022-12-16T09:39:04;25.20;;;18.73;;
21507;SDS011;10915;54.352;9.074;2022-12-16T09:51:06;23.90;;;17.70;;
21507;SDS011;10915;54.352;9.074;2022-12-16T09:53:52;21.13;;;16.43;;
21507;SDS011;10915;54.352;9.074;2022-12-16T09:56:38;25.03;;;17.70;;
21507;SDS011;10915;54.352;9.074;2022-12-16T09:59:28;23.60;;;17.33;;
21507;SDS011;10915;54.352;9.074;2022-12-16T10:02:16;23.80;;;16.93;;
21507;SDS011;10915;54.352;9.074;2022-12-16T10:05:05;23.93;;;12.87;;
21507;SDS011;10915;54.352;9.074;2022-12-16T10:08:00;24.13;;;16.87;;
21507;SDS011;10915;54.352;9.074;2022-12-16T10:11:08;22.93;;;17.17;;
21507;SDS011;10915;54.352;9.074;2022-12-16T10:17:03;18.73;;;15.10;;
21507;SDS011;10915;54.352;9.074;2022-12-16T10:20:34;18.70;;;14.03;;
21507;SDS011;10915;54.352;9.074;2022-12-16T10:26:19;17.77;;;13.30;;
21507;SDS011;10915;54.352;9.074;2022-12-16T10:29:18;16.57;;;13.47;;
21507;SDS011;10915;54.352;9.074;2022-12-16T10:32:10;18.20;;;12.77;;
21507;SDS011;10915;54.352;9.074;2022-12-16T10:35:01;20.07;;;13.77;;
21507;SDS011;10915;54.352;9.074;2022-12-16T10:37:46;22.83;;;14.83;;
21507;SDS011;10915;54.352;9.074;2022-12-16T10:40:31;20.43;;;14.40;;
21507;SDS011;10915;54.352;9.074;2022-12-16T10:43:20;17.33;;;14.33;;
21507;SDS011;10915;54.352;9.074;2022-12-16T10:46:15;17.63;;;14.37;;
21507;SDS011;10915;54.352;9.074;2022-12-16T10:49:04;22.10;;;15.43;;
21507;SDS011;10915;54.352;9.074;2022-12-16T10:51:52;23.13;;;16.37;;
21507;SDS011;10915;54.352;9.074;2022-12-16T10:54:45;22.73;;;16.20;;
21507;SDS011;10915;54.352;9.074;2022-12-16T11:00:20;21.60;;;15.60;;
21507;SDS011;10915;54.352;9.074;2022-12-16T11:03:23;21.90;;;16.10;;
21507;SDS011;10915;54.352;9.074;2022-12-16T11:06:10;20.63;;;16.13;;
21507;SDS011;10915;54.352;9.074;2022-12-16T11:15:29;22.07;;;16.77;;
21507;SDS011;10915;54.352;9.074;2022-12-16T11:18:15;26.40;;;13.80;;
21507;SDS011;10915;54.352;9.074;2022-12-16T11:21:05;20.60;;;17.13;;
21507;SDS011;10915;54.352;9.074;2022-12-16T11:24:20;22.17;;;16.97;;
21507;SDS011;10915;54.352;9.074;2022-12-16T11:27:05;21.27;;;17.03;;
21507;SDS011;10915;54.352;9.074;2022-12-16T11:29:57;23.43;;;17.10;;
21507;SDS011;10915;54.352;9.074;2022-12-16T11:32:51;20.60;;;12.13;;
21507;SDS011;10915;54.352;9.074;2022-12-16T11:35:42;17.00;;;9.90;;
21507;SDS011;10915;54.352;9.074;2022-12-16T11:38:40;20.03;;;16.03;;
21507;SDS011;10915;54.352;9.074;2022-12-16T11:41:49;20.63;;;15.37;;
21507;SDS011;10915;54.352;9.074;2022-12-16T11:44:45;23.43;;;15.67;;
21507;SDS011;10915;54.352;9.074;2022-12-16T11:50:41;19.77;;;14.90;;
21507;SDS011;10915;54.352;9.074;2022-12-16T11:56:59;20.77;;;16.43;;
21507;SDS011;10915;54.352;9.074;2022-12-16T11:59:49;25.33;;;16.97;;
21507;SDS011;10915;54.352;9.074;2022-12-16T12:02:41;24.70;;;16.73;;
21507;SDS011;10915;54.352;9.074;2022-12-16T12:08:44;22.07;;;16.70;;
21507;SDS011;10915;54.352;9.074;2022-12-16T12:15:01;23.60;;;17.57;;
21507;SDS011;10915;54.352;9.074;2022-12-16T12:18:01;22.53;;;17.60;;
21507;SDS011;10915;54.352;9.074;2022-12-16T12:26:53;26.57;;;20.17;;
21507;SDS011;10915;54.352;9.074;2022-12-16T12:30:02;29.13;;;21.17;;
21507;SDS011;10915;54.352;9.074;2022-12-16T12:33:03;28.30;;;15.93;;
21507;SDS011;10915;54.352;9.074;2022-12-16T12:36:21;24.00;;;12.93;;
21507;SDS011;10915;54.352;9.074;2022-12-16T12:53:59;25.47;;;18.87;;
21507;SDS011;10915;54.352;9.074;2022-12-16T12:57:01;23.03;;;17.60;;
21507;SDS011;10915;54.352;9.074;2022-12-16T13:00:04;23.00;;;17.20;;
21507;SDS011;10915;54.352;9.074;2022-12-16T13:05:44;21.57;;;17.17;;
21507;SDS011;10915;54.352;9.074;2022-12-16T13:08:42;20.20;;;16.90;;
21507;SDS011;10915;54.352;9.074;2022-12-16T13:11:30;23.27;;;18.47;;
21507;SDS011;10915;54.352;9.074;2022-12-16T13:20:45;23.30;;;18.37;;
21507;SDS011;10915;54.352;9.074;2022-12-16T13:23:31;22.23;;;18.57;;
21507;SDS011;10915;54.352;9.074;2022-12-16T13:26:21;22.23;;;14.43;;
21507;SDS011;10915;54.352;9.074;2022-12-16T13:29:17;20.97;;;12.33;;
21507;SDS011;10915;54.352;9.074;2022-12-16T13:34:58;21.07;;;11.77;;
21507;SDS011;10915;54.352;9.074;2022-12-16T13:37:53;22.33;;;13.70;;
21507;SDS011;10915;54.352;9.074;2022-12-16T13:40:51;21.63;;;13.13;;
21507;SDS011;10915;54.352;9.074;2022-12-16T13:55:29;26.67;;;13.47;;
21507;SDS011;10915;54.352;9.074;2022-12-16T14:01:17;23.63;;;12.67;;
21507;SDS011;10915;54.352;9.074;2022-12-16T14:04:09;27.10;;;13.90;;
21507;SDS011;10915;54.352;9.074;2022-12-16T14:06:58;24.07;;;13.73;;
21507;SDS011;10915;54.352;9.074;2022-12-16T14:09:43;19.30;;;13.60;;
21507;SDS011;10915;54.352;9.074;2022-12-16T14:12:40;24.33;;;19.37;;
21507;SDS011;10915;54.352;9.074;2022-12-16T14:21:41;27.10;;;19.80;;
21507;SDS011;10915;54.352;9.074;2022-12-16T14:24:33;29.53;;;21.00;;
21507;SDS011;10915;54.352;9.074;2022-12-16T14:27:21;29.73;;;20.93;;
21507;SDS011;10915;54.352;9.074;2022-12-16T14:30:40;26.27;;;20.43;;
21507;SDS011;10915;54.352;9.074;2022-12-16T14:33:21;29.33;;;20.87;;
21507;SDS011;10915;54.352;9.074;2022-12-16T14:36:20;29.53;;;20.63;;
21507;SDS011;10915;54.352;9.074;2022-12-16T14:39:50;27.00;;;19.83;;
21507;SDS011;10915;54.352;9.074;2022-12-16T14:42:23;28.77;;;20.53;;
21507;SDS011;10915;54.352;9.074;2022-12-16T14:48:24;29.97;;;21.33;;
21507;SDS011;10915;54.352;9.074;2022-12-16T14:54:17;31.77;;;22.50;;
21507;SDS011;10915;54.352;9.074;2022-12-16T14:57:22;34.80;;;22.57;;
21507;SDS011;10915;54.352;9.074;2022-12-16T15:02:53;36.50;;;22.80;;
21507;SDS011;10915;54.352;9.074;2022-12-16T15:05:40;32.67;;;22.83;;
21507;SDS011;10915;54.352;9.074;2022-12-16T15:08:26;30.13;;;21.73;;
21507;SDS011;10915;54.352;9.074;2022-12-16T15:11:14;31.83;;;22.73;;
21507;SDS011;10915;54.352;9.074;2022-12-16T15:14:03;33.00;;;23.37;;
21507;SDS011;10915;54.352;9.074;2022-12-16T15:16:49;37.47;;;24.23;;
21507;SDS011;10915;54.352;9.074;2022-12-16T15:19:45;34.87;;;23.73;;
21507;SDS011;10915;54.352;9.074;2022-12-16T15:22:34;41.47;;;25.17;;
21507;SDS011;10915;54.352;9.074;2022-12-16T15:25:22;31.83;;;23.90;;
21507;SDS011;10915;54.352;9.074;2022-12-16T15:28:21;36.13;;;25.73;;
21507;SDS011;10915;54.352;9.074;2022-12-16T15:31:14;32.10;;;18.80;;
21507;SDS011;10915;54.352;9.074;2022-12-16T15:37:16;30.77;;;16.80;;
21507;SDS011;10915;54.352;9.074;2022-12-16T15:40:25;29.07;;;16.27;;
21507;SDS011;10915;54.352;9.074;2022-12-16T15:43:30;69.40;;;21.30;;
21507;SDS011;10915;54.352;9.074;2022-12-16T15:46:16;33.80;;;17.47;;
21507;SDS011;10915;54.352;9.074;2022-12-16T15:49:02;37.87;;;17.47;;
21507;SDS011;10915;54.352;9.074;2022-12-16T15:51:48;31.63;;;17.13;;
21507;SDS011;10915;54.352;9.074;2022-12-16T15:54:47;42.17;;;27.70;;
21507;SDS011;10915;54.352;9.074;2022-12-16T15:57:35;35.47;;;19.13;;
21507;SDS011;10915;54.352;9.074;2022-12-16T16:00:28;34.83;;;18.13;;
21507;SDS011;10915;54.352;9.074;2022-12-16T16:06:15;30.53;;;17.70;;
21507;SDS011;10915;54.352;9.074;2022-12-16T16:09:15;34.53;;;17.57;;
21507;SDS011;10915;54.352;9.074;2022-12-16T16:12:11;31.97;;;18.17;;
21507;SDS011;10915;54.352;9.074;2022-12-16T16:14:57;33.50;;;18.33;;
21507;SDS011;10915;54.352;9.074;2022-12-16T16:17:42;29.30;;;15.67;;
21507;SDS011;10915;54.352;9.074;2022-12-16T16:20:26;28.90;;;16.00;;
21507;SDS011;10915;54.352;9.074;2022-12-16T16:23:11;28.80;;;17.17;;
21507;SDS011;10915;54.352;9.074;2022-12-16T16:25:56;37.37;;;17.63;;
21507;SDS011;10915;54.352;9.074;2022-12-16T16:28:40;29.73;;;17.00;;
21507;SDS011;10915;54.352;9.074;2022-12-16T16:31:25;29.07;;;17.63;;
21507;SDS011;10915;54.352;9.074;2022-12-16T16:34:09;31.27;;;17.20;;
21507;SDS011;10915;54.352;9.074;2022-12-16T16:36:55;33.97;;;19.30;;
21507;SDS011;10915;54.352;9.074;2022-12-16T16:39:41;30.77;;;17.70;;
21507;SDS011;10915;54.352;9.074;2022-12-16T16:42:26;38.33;;;18.57;;
21507;SDS011;10915;54.352;9.074;2022-12-16T16:45:12;35.63;;;20.00;;
21507;SDS011;10915;54.352;9.074;2022-12-16T16:48:10;36.40;;;18.67;;
21507;SDS011;10915;54.352;9.074;2022-12-16T16:50:57;34.50;;;19.50;;
21507;SDS011;10915;54.352;9.074;2022-12-16T16:53:42;48.27;;;32.97;;
21507;SDS011;10915;54.352;9.074;2022-12-16T16:56:28;39.33;;;23.23;;
21507;SDS011;10915;54.352;9.074;2022-12-16T16:59:15;46.90;;;24.70;;
21507;SDS011;10915;54.352;9.074;2022-12-16T17:02:00;65.43;;;44.45;;
21507;SDS011;10915;54.352;9.074;2022-12-16T17:04:45;60.70;;;36.00;;
21507;SDS011;10915;54.352;9.074;2022-12-16T17:07:29;58.23;;;28.53;;
21507;SDS011;10915;54.352;9.074;2022-12-16T17:10:13;48.73;;;25.73;;
21507;SDS011;10915;54.352;9.074;2022-12-16T17:12:57;49.13;;;23.97;;
21507;SDS011;10915;54.352;9.074;2022-12-16T17:15:41;40.10;;;23.73;;
21507;SDS011;10915;54.352;9.074;2022-12-16T17:18:27;39.20;;;21.50;;
21507;SDS011;10915;54.352;9.074;2022-12-16T17:21:12;44.50;;;25.97;;
21507;SDS011;10915;54.352;9.074;2022-12-16T17:23:56;47.80;;;25.67;;
21507;SDS011;10915;54.352;9.074;2022-12-16T17:26:40;52.03;;;27.33;;
21507;SDS011;10915;54.352;9.074;2022-12-16T17:29:25;48.40;;;26.77;;
21507;SDS011;10915;54.352;9.074;2022-12-16T17:32:10;73.73;;;44.50;;
21507;SDS011;10915;54.352;9.074;2022-12-16T17:34:55;72.07;;;43.17;;
21507;SDS011;10915;54.352;9.074;2022-12-16T17:37:40;54.77;;;27.73;;
21507;SDS011;10915;54.352;9.074;2022-12-16T17:40:24;43.83;;;23.00;;
21507;SDS011;10915;54.352;9.074;2022-12-16T17:43:09;46.53;;;23.93;;
21507;SDS011;10915;54.352;9.074;2022-12-16T17:46:06;39.88;;;17.20;;
21507;SDS011;10915;54.352;9.074;2022-12-16T17:48:53;47.17;;;27.93;;
21507;SDS011;10915;54.352;9.074;2022-12-16T17:51:39;60.27;;;29.60;;
21507;SDS011;10915;54.352;9.074;2022-12-16T17:54:23;55.33;;;29.60;;
21507;SDS011;10915;54.352;9.074;2022-12-16T17:57:08;58.27;;;29.93;;
21507;SDS011;10915;54.352;9.074;2022-12-16T17:59:52;53.97;;;27.20;;
21507;SDS011;10915;54.352;9.074;2022-12-16T18:02:36;52.80;;;26.97;;
21507;SDS011;10915;54.352;9.074;2022-12-16T18:05:21;57.53;;;30.10;;
21507;SDS011;10915;54.352;9.074;2022-12-16T18:08:05;58.20;;;30.47;;
21507;SDS011;10915;54.352;9.074;2022-12-16T18:10:52;56.80;;;27.73;;
21507;SDS011;10915;54.352;9.074;2022-12-16T18:13:37;56.00;;;26.17;;
21507;SDS011;10915;54.352;9.074;2022-12-16T18:16:21;49.33;;;26.13;;
21507;SDS011;10915;54.352;9.074;2022-12-16T18:19:06;48.37;;;26.77;;